sensor_id;sensor_type;location;lat;lon;timestamp;temperature;humidity
39899;DHT22;25571;47.876;10.642;2023-05-19T00:01:27;10.60;99.90
39899;DHT22;25571;47.876;10.642;2023-05-19T00:03:55;10.60;99.90
39899;DHT22;25571;47.876;10.642;2023-05-19T00:06:31;10.70;99.90
39899;DHT22;25571;47.876;10.642;2023-05-19T00:09:02;10.70;99.90
39899;DHT22;25571;47.876;10.642;2023-05-19T00:11:29;10.60;99.90
39899;DHT22;25571;47.876;10.642;2023-05-19T00:13:56;10.60;99.90
39899;DHT22;25571;47.876;10.642;2023-05-19T00:16:23;10.60;99.90
39899;DHT22;25571;47.876;10.642;2023-05-19T00:18:49;10.60;99.90
39899;DHT22;25571;47.876;10.642;2023-05-19T00:21:16;10.60;99.90
39899;DHT22;25571;47.876;10.642;2023-05-19T00:23:42;10.50;99.90
39899;DHT22;25571;47.876;10.642;2023-05-19T00:26:07;10.50;99.90
39899;DHT22;25571;47.876;10.642;2023-05-19T00:28:33;10.60;99.90
39899;DHT22;25571;47.876;10.642;2023-05-19T00:30:58;10.60;99.90
39899;DHT22;25571;47.876;10.642;2023-05-19T00:33:25;10.60;99.90
39899;DHT22;25571;47.876;10.642;2023-05-19T00:35:50;10.50;99.90
39899;DHT22;25571;47.876;10.642;2023-05-19T00:38:16;10.50;99.90
39899;DHT22;25571;47.876;10.642;2023-05-19T00:40:42;10.40;99.90
39899;DHT22;25571;47.876;10.642;2023-05-19T00:43:07;10.50;99.90
39899;DHT22;25571;47.876;10.642;2023-05-19T00:45:33;10.40;99.90
39899;DHT22;25571;47.876;10.642;2023-05-19T00:47:59;10.40;99.90
39899;DHT22;25571;47.876;10.642;2023-05-19T00:50:25;10.50;99.90
39899;DHT22;25571;47.876;10.642;2023-05-19T00:52:55;10.50;99.90
39899;DHT22;25571;47.876;10.642;2023-05-19T00:55:22;10.50;99.90
39899;DHT22;25571;47.876;10.642;2023-05-19T00:57:49;10.50;99.90
39899;DHT22;25571;47.876;10.642;2023-05-19T01:00:15;10.50;99.90
39899;DHT22;25571;47.876;10.642;2023-05-19T01:02:42;10.50;99.90
39899;DHT22;25571;47.876;10.642;2023-05-19T01:05:08;10.50;99.90
39899;DHT22;25571;47.876;10.642;2023-05-19T01:07:33;10.40;99.90
39899;DHT22;25571;47.876;10.642;2023-05-19T01:09:59;10.40;99.90
39899;DHT22;25571;47.876;10.642;2023-05-19T01:12:25;10.40;99.90
39899;DHT22;25571;47.876;10.642;2023-05-19T01:14:51;10.40;99.90
39899;DHT22;25571;47.876;10.642;2023-05-19T01:20:14;10.40;99.90
39899;DHT22;25571;47.876;10.642;2023-05-19T01:30:48;10.40;99.90
39899;DHT22;25571;47.876;10.642;2023-05-19T01:33:18;10.40;99.90
39899;DHT22;25571;47.876;10.642;2023-05-19T01:35:46;10.30;99.90
39899;DHT22;25571;47.876;10.642;2023-05-19T01:38:15;10.30;99.90
39899;DHT22;25571;47.876;10.642;2023-05-19T01:40:42;10.20;99.90
39899;DHT22;25571;47.876;10.642;2023-05-19T01:43:19;10.20;99.90
39899;DHT22;25571;47.876;10.642;2023-05-19T01:45:46;10.20;99.90
39899;DHT22;25571;47.876;10.642;2023-05-19T01:48:12;10.20;99.90
39899;DHT22;25571;47.876;10.642;2023-05-19T01:50:39;10.20;99.90
39899;DHT22;25571;47.876;10.642;2023-05-19T01:53:05;10.20;99.90
39899;DHT22;25571;47.876;10.642;2023-05-19T01:55:30;10.10;99.90
39899;DHT22;25571;47.876;10.642;2023-05-19T02:00:40;10.20;99.90
39899;DHT22;25571;47.876;10.642;2023-05-19T02:06:12;10.20;99.90
39899;DHT22;25571;47.876;10.642;2023-05-19T02:08:43;10.10;99.90
39899;DHT22;25571;47.876;10.642;2023-05-19T02:11:24;10.10;99.90
39899;DHT22;25571;47.876;10.642;2023-05-19T02:13:53;10.10;99.90
39899;DHT22;25571;47.876;10.642;2023-05-19T02:16:22;10.10;99.90
39899;DHT22;25571;47.876;10.642;2023-05-19T02:18:52;10.10;99.90
39899;DHT22;25571;47.876;10.642;2023-05-19T02:21:18;10.10;99.90
39899;DHT22;25571;47.876;10.642;2023-05-19T02:23:44;10.20;99.90
39899;DHT22;25571;47.876;10.642;2023-05-19T02:26:09;10.20;99.90
39899;DHT22;25571;47.876;10.642;2023-05-19T02:28:35;10.10;99.90
39899;DHT22;25571;47.876;10.642;2023-05-19T02:31:03;10.10;99.90
39899;DHT22;25571;47.876;10.642;2023-05-19T02:33:33;10.10;99.90
39899;DHT22;25571;47.876;10.642;2023-05-19T02:35:58;10.10;99.90
39899;DHT22;25571;47.876;10.642;2023-05-19T02:38:24;9.70;99.90
39899;DHT22;25571;47.876;10.642;2023-05-19T02:40:52;10.10;99.90
39899;DHT22;25571;47.876;10.642;2023-05-19T02:43:18;10.00;99.90
39899;DHT22;25571;47.876;10.642;2023-05-19T02:45:44;10.00;99.90
39899;DHT22;25571;47.876;10.642;2023-05-19T02:48:10;10.00;99.90
39899;DHT22;25571;47.876;10.642;2023-05-19T02:50:36;9.90;99.90
39899;DHT22;25571;47.876;10.642;2023-05-19T02:53:03;9.90;99.90
39899;DHT22;25571;47.876;10.642;2023-05-19T02:55:28;9.90;99.90
39899;DHT22;25571;47.876;10.642;2023-05-19T02:57:54;9.90;99.90
39899;DHT22;25571;47.876;10.642;2023-05-19T03:00:20;9.90;99.90
39899;DHT22;25571;47.876;10.642;2023-05-19T03:02:45;9.90;99.90
39899;DHT22;25571;47.876;10.642;2023-05-19T03:05:11;9.90;99.90
39899;DHT22;25571;47.876;10.642;2023-05-19T03:07:38;9.90;99.90
39899;DHT22;25571;47.876;10.642;2023-05-19T03:10:04;9.80;99.90
39899;DHT22;25571;47.876;10.642;2023-05-19T03:12:31;9.80;99.90
39899;DHT22;25571;47.876;10.642;2023-05-19T03:14:58;9.80;99.90
39899;DHT22;25571;47.876;10.642;2023-05-19T03:17:23;9.80;99.90
39899;DHT22;25571;47.876;10.642;2023-05-19T03:19:49;9.80;99.90
39899;DHT22;25571;47.876;10.642;2023-05-19T03:22:15;9.80;99.90
39899;DHT22;25571;47.876;10.642;2023-05-19T03:24:43;9.80;99.90
39899;DHT22;25571;47.876;10.642;2023-05-19T03:27:08;9.80;99.90
39899;DHT22;25571;47.876;10.642;2023-05-19T03:29:34;9.80;99.90
39899;DHT22;25571;47.876;10.642;2023-05-19T03:32:01;9.80;99.90
39899;DHT22;25571;47.876;10.642;2023-05-19T03:34:26;9.80;99.90
39899;DHT22;25571;47.876;10.642;2023-05-19T03:36:52;9.80;99.90
39899;DHT22;25571;47.876;10.642;2023-05-19T03:39:18;9.70;99.90
39899;DHT22;25571;47.876;10.642;2023-05-19T03:41:43;9.70;99.90
39899;DHT22;25571;47.876;10.642;2023-05-19T03:44:09;9.60;99.90
39899;DHT22;25571;47.876;10.642;2023-05-19T03:46:34;9.60;99.90
39899;DHT22;25571;47.876;10.642;2023-05-19T03:49:00;9.50;99.90
39899;DHT22;25571;47.876;10.642;2023-05-19T03:51:26;9.40;99.90
39899;DHT22;25571;47.876;10.642;2023-05-19T03:53:52;9.40;99.90
39899;DHT22;25571;47.876;10.642;2023-05-19T03:56:18;9.30;99.90
39899;DHT22;25571;47.876;10.642;2023-05-19T03:58:45;9.40;99.90
39899;DHT22;25571;47.876;10.642;2023-05-19T04:01:11;9.30;99.90
39899;DHT22;25571;47.876;10.642;2023-05-19T04:03:36;9.30;99.90
39899;DHT22;25571;47.876;10.642;2023-05-19T04:06:02;9.30;99.90
39899;DHT22;25571;47.876;10.642;2023-05-19T04:08:28;9.20;99.90
39899;DHT22;25571;47.876;10.642;2023-05-19T04:10:53;9.20;99.90
39899;DHT22;25571;47.876;10.642;2023-05-19T04:13:20;9.30;99.90
39899;DHT22;25571;47.876;10.642;2023-05-19T04:15:45;9.50;99.90
39899;DHT22;25571;47.876;10.642;2023-05-19T04:18:11;9.50;99.90
39899;DHT22;25571;47.876;10.642;2023-05-19T04:20:36;9.30;99.90
39899;DHT22;25571;47.876;10.642;2023-05-19T04:23:02;9.30;99.90
39899;DHT22;25571;47.876;10.642;2023-05-19T04:25:28;9.50;99.90
39899;DHT22;25571;47.876;10.642;2023-05-19T04:27:53;9.60;99.90
39899;DHT22;25571;47.876;10.642;2023-05-19T04:30:22;9.60;99.90
39899;DHT22;25571;47.876;10.642;2023-05-19T04:32:48;9.60;99.90
39899;DHT22;25571;47.876;10.642;2023-05-19T04:35:17;9.70;99.90
39899;DHT22;25571;47.876;10.642;2023-05-19T04:37:43;9.60;99.90
39899;DHT22;25571;47.876;10.642;2023-05-19T04:40:13;9.70;99.90
39899;DHT22;25571;47.876;10.642;2023-05-19T04:42:39;9.70;99.90
39899;DHT22;25571;47.876;10.642;2023-05-19T04:45:06;9.60;99.90
39899;DHT22;25571;47.876;10.642;2023-05-19T04:47:36;9.70;99.90
39899;DHT22;25571;47.876;10.642;2023-05-19T04:50:03;9.70;99.90
39899;DHT22;25571;47.876;10.642;2023-05-19T04:52:29;9.60;99.90
39899;DHT22;25571;47.876;10.642;2023-05-19T04:54:55;9.70;99.90
39899;DHT22;25571;47.876;10.642;2023-05-19T04:57:20;9.70;99.90
39899;DHT22;25571;47.876;10.642;2023-05-19T04:59:46;9.60;99.90
39899;DHT22;25571;47.876;10.642;2023-05-19T05:02:12;9.70;99.90
39899;DHT22;25571;47.876;10.642;2023-05-19T05:04:37;9.60;99.90
39899;DHT22;25571;47.876;10.642;2023-05-19T05:07:07;9.70;99.90
39899;DHT22;25571;47.876;10.642;2023-05-19T05:09:32;9.70;99.90
39899;DHT22;25571;47.876;10.642;2023-05-19T05:11:58;9.70;99.90
39899;DHT22;25571;47.876;10.642;2023-05-19T05:14:24;9.80;99.90
39899;DHT22;25571;47.876;10.642;2023-05-19T05:16:50;9.80;99.90
39899;DHT22;25571;47.876;10.642;2023-05-19T05:19:16;9.90;99.90
39899;DHT22;25571;47.876;10.642;2023-05-19T05:21:42;10.00;99.90
39899;DHT22;25571;47.876;10.642;2023-05-19T05:24:08;10.00;99.90
39899;DHT22;25571;47.876;10.642;2023-05-19T05:26:34;10.00;99.90
39899;DHT22;25571;47.876;10.642;2023-05-19T05:29:01;10.20;99.90
39899;DHT22;25571;47.876;10.642;2023-05-19T05:31:26;10.20;99.90
39899;DHT22;25571;47.876;10.642;2023-05-19T05:33:52;10.10;99.90
39899;DHT22;25571;47.876;10.642;2023-05-19T05:36:18;10.10;99.90
39899;DHT22;25571;47.876;10.642;2023-05-19T05:38:43;10.10;99.90
39899;DHT22;25571;47.876;10.642;2023-05-19T05:41:09;10.00;99.90
39899;DHT22;25571;47.876;10.642;2023-05-19T05:43:34;10.10;99.90
39899;DHT22;25571;47.876;10.642;2023-05-19T05:46:00;10.00;99.90
39899;DHT22;25571;47.876;10.642;2023-05-19T05:48:26;9.80;99.90
39899;DHT22;25571;47.876;10.642;2023-05-19T05:50:52;9.80;99.90
39899;DHT22;25571;47.876;10.642;2023-05-19T05:53:18;9.80;99.90
39899;DHT22;25571;47.876;10.642;2023-05-19T05:55:48;9.90;99.90
39899;DHT22;25571;47.876;10.642;2023-05-19T05:58:13;9.80;99.90
39899;DHT22;25571;47.876;10.642;2023-05-19T06:00:40;9.80;99.90
39899;DHT22;25571;47.876;10.642;2023-05-19T06:03:09;9.80;99.90
39899;DHT22;25571;47.876;10.642;2023-05-19T06:05:36;9.80;99.90
39899;DHT22;25571;47.876;10.642;2023-05-19T06:08:02;9.80;99.90
39899;DHT22;25571;47.876;10.642;2023-05-19T06:10:28;9.90;99.90
39899;DHT22;25571;47.876;10.642;2023-05-19T06:12:53;10.00;99.90
39899;DHT22;25571;47.876;10.642;2023-05-19T06:15:20;10.10;99.90
39899;DHT22;25571;47.876;10.642;2023-05-19T06:17:46;10.00;99.90
39899;DHT22;25571;47.876;10.642;2023-05-19T06:20:12;10.10;99.90
39899;DHT22;25571;47.876;10.642;2023-05-19T06:22:37;10.00;99.90
39899;DHT22;25571;47.876;10.642;2023-05-19T06:25:04;10.00;99.90
39899;DHT22;25571;47.876;10.642;2023-05-19T06:27:30;10.10;99.90
39899;DHT22;25571;47.876;10.642;2023-05-19T06:29:56;10.20;99.90
39899;DHT22;25571;47.876;10.642;2023-05-19T06:32:21;10.20;99.90
39899;DHT22;25571;47.876;10.642;2023-05-19T06:34:47;10.30;99.90
39899;DHT22;25571;47.876;10.642;2023-05-19T06:37:20;10.30;99.90
39899;DHT22;25571;47.876;10.642;2023-05-19T06:39:46;10.40;99.90
39899;DHT22;25571;47.876;10.642;2023-05-19T06:42:11;10.50;99.90
39899;DHT22;25571;47.876;10.642;2023-05-19T06:44:37;10.60;99.90
39899;DHT22;25571;47.876;10.642;2023-05-19T06:47:02;10.60;99.90
39899;DHT22;25571;47.876;10.642;2023-05-19T06:49:28;10.60;99.90
39899;DHT22;25571;47.876;10.642;2023-05-19T06:51:54;10.60;99.90
39899;DHT22;25571;47.876;10.642;2023-05-19T06:54:19;10.60;99.90
39899;DHT22;25571;47.876;10.642;2023-05-19T06:56:45;10.70;99.90
39899;DHT22;25571;47.876;10.642;2023-05-19T06:59:11;10.80;99.90
39899;DHT22;25571;47.876;10.642;2023-05-19T07:01:36;10.80;99.90
39899;DHT22;25571;47.876;10.642;2023-05-19T07:04:02;11.00;99.90
39899;DHT22;25571;47.876;10.642;2023-05-19T07:06:27;11.00;99.90
39899;DHT22;25571;47.876;10.642;2023-05-19T07:08:53;11.00;99.90
39899;DHT22;25571;47.876;10.642;2023-05-19T07:11:18;11.10;99.90
39899;DHT22;25571;47.876;10.642;2023-05-19T07:13:44;11.20;99.90
39899;DHT22;25571;47.876;10.642;2023-05-19T07:16:09;11.30;99.90
39899;DHT22;25571;47.876;10.642;2023-05-19T07:18:35;11.40;99.90
39899;DHT22;25571;47.876;10.642;2023-05-19T07:21:01;11.40;99.90
39899;DHT22;25571;47.876;10.642;2023-05-19T07:23:26;11.70;99.90
39899;DHT22;25571;47.876;10.642;2023-05-19T07:25:55;11.30;99.90
39899;DHT22;25571;47.876;10.642;2023-05-19T07:28:20;11.50;99.90
39899;DHT22;25571;47.876;10.642;2023-05-19T07:30:46;11.60;99.90
39899;DHT22;25571;47.876;10.642;2023-05-19T07:33:12;11.50;99.90
39899;DHT22;25571;47.876;10.642;2023-05-19T07:35:38;11.60;99.90
39899;DHT22;25571;47.876;10.642;2023-05-19T07:38:04;11.70;99.90
39899;DHT22;25571;47.876;10.642;2023-05-19T07:40:31;11.80;99.90
39899;DHT22;25571;47.876;10.642;2023-05-19T07:42:57;11.90;99.90
39899;DHT22;25571;47.876;10.642;2023-05-19T07:45:22;11.90;99.90
39899;DHT22;25571;47.876;10.642;2023-05-19T07:47:48;11.80;99.90
39899;DHT22;25571;47.876;10.642;2023-05-19T07:50:13;11.90;99.90
39899;DHT22;25571;47.876;10.642;2023-05-19T07:52:39;12.00;99.90
39899;DHT22;25571;47.876;10.642;2023-05-19T07:55:05;11.80;99.90
39899;DHT22;25571;47.876;10.642;2023-05-19T07:57:30;11.90;99.90
39899;DHT22;25571;47.876;10.642;2023-05-19T07:59:56;12.00;99.90
39899;DHT22;25571;47.876;10.642;2023-05-19T08:02:22;12.20;99.90
39899;DHT22;25571;47.876;10.642;2023-05-19T08:04:47;12.30;99.90
39899;DHT22;25571;47.876;10.642;2023-05-19T08:07:13;12.20;99.90
39899;DHT22;25571;47.876;10.642;2023-05-19T08:09:39;12.40;99.90
39899;DHT22;25571;47.876;10.642;2023-05-19T08:12:04;12.50;99.90
39899;DHT22;25571;47.876;10.642;2023-05-19T08:14:30;12.50;99.90
39899;DHT22;25571;47.876;10.642;2023-05-19T08:16:57;12.40;99.90
39899;DHT22;25571;47.876;10.642;2023-05-19T08:19:23;12.40;99.90
39899;DHT22;25571;47.876;10.642;2023-05-19T08:21:48;12.50;99.90
39899;DHT22;25571;47.876;10.642;2023-05-19T08:24:14;12.40;99.90
39899;DHT22;25571;47.876;10.642;2023-05-19T08:26:40;12.20;99.90
39899;DHT22;25571;47.876;10.642;2023-05-19T08:29:05;12.30;99.90
39899;DHT22;25571;47.876;10.642;2023-05-19T08:31:31;12.30;99.90
39899;DHT22;25571;47.876;10.642;2023-05-19T08:33:57;12.30;99.90
39899;DHT22;25571;47.876;10.642;2023-05-19T08:36:22;12.30;99.90
39899;DHT22;25571;47.876;10.642;2023-05-19T08:38:49;12.50;99.90
39899;DHT22;25571;47.876;10.642;2023-05-19T08:41:14;12.50;99.90
39899;DHT22;25571;47.876;10.642;2023-05-19T08:43:41;12.50;99.90
39899;DHT22;25571;47.876;10.642;2023-05-19T08:46:06;12.50;99.90
39899;DHT22;25571;47.876;10.642;2023-05-19T08:48:36;12.40;99.90
39899;DHT22;25571;47.876;10.642;2023-05-19T08:53:47;12.30;99.90
39899;DHT22;25571;47.876;10.642;2023-05-19T08:56:22;12.30;99.90
39899;DHT22;25571;47.876;10.642;2023-05-19T08:58:49;12.10;99.90
39899;DHT22;25571;47.876;10.642;2023-05-19T09:01:16;12.20;99.90
39899;DHT22;25571;47.876;10.642;2023-05-19T09:03:43;12.50;99.90
39899;DHT22;25571;47.876;10.642;2023-05-19T09:06:09;12.50;99.90
39899;DHT22;25571;47.876;10.642;2023-05-19T09:08:37;12.60;99.90
39899;DHT22;25571;47.876;10.642;2023-05-19T09:11:03;12.70;99.90
39899;DHT22;25571;47.876;10.642;2023-05-19T09:13:28;12.70;99.90
39899;DHT22;25571;47.876;10.642;2023-05-19T09:15:55;12.80;99.90
39899;DHT22;25571;47.876;10.642;2023-05-19T09:18:23;12.80;99.90
39899;DHT22;25571;47.876;10.642;2023-05-19T09:20:50;12.90;99.90
39899;DHT22;25571;47.876;10.642;2023-05-19T09:23:17;13.00;99.90
39899;DHT22;25571;47.876;10.642;2023-05-19T09:25:46;13.10;99.90
39899;DHT22;25571;47.876;10.642;2023-05-19T09:28:12;13.10;99.90
39899;DHT22;25571;47.876;10.642;2023-05-19T09:30:38;13.00;99.90
39899;DHT22;25571;47.876;10.642;2023-05-19T09:33:04;13.30;99.90
39899;DHT22;25571;47.876;10.642;2023-05-19T09:35:34;13.20;99.90
39899;DHT22;25571;47.876;10.642;2023-05-19T09:38:00;13.30;99.90
39899;DHT22;25571;47.876;10.642;2023-05-19T09:40:27;13.00;99.90
39899;DHT22;25571;47.876;10.642;2023-05-19T09:42:53;13.00;99.90
39899;DHT22;25571;47.876;10.642;2023-05-19T09:45:19;13.20;99.90
39899;DHT22;25571;47.876;10.642;2023-05-19T09:47:44;13.20;99.90
39899;DHT22;25571;47.876;10.642;2023-05-19T09:50:11;13.10;99.90
39899;DHT22;25571;47.876;10.642;2023-05-19T09:52:37;13.00;99.90
39899;DHT22;25571;47.876;10.642;2023-05-19T09:55:12;13.30;99.90
39899;DHT22;25571;47.876;10.642;2023-05-19T09:57:39;13.20;99.90
39899;DHT22;25571;47.876;10.642;2023-05-19T10:00:06;13.20;99.90
39899;DHT22;25571;47.876;10.642;2023-05-19T10:02:45;13.30;99.90
39899;DHT22;25571;47.876;10.642;2023-05-19T10:05:15;13.10;99.90
39899;DHT22;25571;47.876;10.642;2023-05-19T10:07:42;13.30;99.90
39899;DHT22;25571;47.876;10.642;2023-05-19T10:10:11;13.20;99.90
39899;DHT22;25571;47.876;10.642;2023-05-19T10:12:38;12.90;99.90
39899;DHT22;25571;47.876;10.642;2023-05-19T10:15:11;13.10;99.90
39899;DHT22;25571;47.876;10.642;2023-05-19T10:17:38;13.00;99.90
39899;DHT22;25571;47.876;10.642;2023-05-19T10:20:07;13.20;99.90
39899;DHT22;25571;47.876;10.642;2023-05-19T10:22:33;13.30;99.90
39899;DHT22;25571;47.876;10.642;2023-05-19T10:24:59;13.40;99.90
39899;DHT22;25571;47.876;10.642;2023-05-19T10:27:27;13.50;99.90
39899;DHT22;25571;47.876;10.642;2023-05-19T10:29:54;13.30;99.90
39899;DHT22;25571;47.876;10.642;2023-05-19T10:32:23;13.30;99.90
39899;DHT22;25571;47.876;10.642;2023-05-19T10:35:05;13.30;99.90
39899;DHT22;25571;47.876;10.642;2023-05-19T10:40:50;13.20;99.90
39899;DHT22;25571;47.876;10.642;2023-05-19T10:43:45;13.20;99.90
39899;DHT22;25571;47.876;10.642;2023-05-19T10:46:13;13.20;99.90
39899;DHT22;25571;47.876;10.642;2023-05-19T10:48:43;13.50;99.90
39899;DHT22;25571;47.876;10.642;2023-05-19T10:51:10;13.60;99.90
39899;DHT22;25571;47.876;10.642;2023-05-19T10:53:40;13.80;99.90
39899;DHT22;25571;47.876;10.642;2023-05-19T10:56:06;13.80;99.90
39899;DHT22;25571;47.876;10.642;2023-05-19T11:01:13;13.60;99.90
39899;DHT22;25571;47.876;10.642;2023-05-19T11:03:52;13.60;99.90
39899;DHT22;25571;47.876;10.642;2023-05-19T11:06:19;13.60;99.90
39899;DHT22;25571;47.876;10.642;2023-05-19T11:08:45;13.60;99.90
39899;DHT22;25571;47.876;10.642;2023-05-19T11:11:15;13.60;99.90
39899;DHT22;25571;47.876;10.642;2023-05-19T11:13:52;13.60;99.90
39899;DHT22;25571;47.876;10.642;2023-05-19T11:16:26;13.60;99.90
39899;DHT22;25571;47.876;10.642;2023-05-19T11:18:53;13.70;99.90
39899;DHT22;25571;47.876;10.642;2023-05-19T11:21:20;13.90;99.90
39899;DHT22;25571;47.876;10.642;2023-05-19T11:23:45;14.00;99.90
39899;DHT22;25571;47.876;10.642;2023-05-19T11:26:12;14.00;99.90
39899;DHT22;25571;47.876;10.642;2023-05-19T11:28:37;14.10;99.90
39899;DHT22;25571;47.876;10.642;2023-05-19T11:31:04;14.10;99.90
39899;DHT22;25571;47.876;10.642;2023-05-19T11:33:32;14.20;99.90
39899;DHT22;25571;47.876;10.642;2023-05-19T11:35:58;14.20;99.90
39899;DHT22;25571;47.876;10.642;2023-05-19T11:38:24;14.20;99.90
39899;DHT22;25571;47.876;10.642;2023-05-19T11:40:53;14.30;99.90
39899;DHT22;25571;47.876;10.642;2023-05-19T11:43:23;14.30;99.90
39899;DHT22;25571;47.876;10.642;2023-05-19T11:45:49;14.50;99.90
39899;DHT22;25571;47.876;10.642;2023-05-19T11:48:15;14.70;99.90
39899;DHT22;25571;47.876;10.642;2023-05-19T11:50:41;14.70;99.90
39899;DHT22;25571;47.876;10.642;2023-05-19T11:53:10;15.00;99.90
39899;DHT22;25571;47.876;10.642;2023-05-19T11:55:41;15.00;99.90
39899;DHT22;25571;47.876;10.642;2023-05-19T11:58:08;15.00;99.90
39899;DHT22;25571;47.876;10.642;2023-05-19T12:00:36;15.30;99.90
39899;DHT22;25571;47.876;10.642;2023-05-19T12:03:03;15.20;99.90
39899;DHT22;25571;47.876;10.642;2023-05-19T12:05:29;15.20;99.90
39899;DHT22;25571;47.876;10.642;2023-05-19T12:07:56;15.20;99.90
39899;DHT22;25571;47.876;10.642;2023-05-19T12:10:29;15.10;99.90
39899;DHT22;25571;47.876;10.642;2023-05-19T12:12:56;15.10;99.90
39899;DHT22;25571;47.876;10.642;2023-05-19T12:15:23;15.00;99.90
39899;DHT22;25571;47.876;10.642;2023-05-19T12:17:59;15.00;99.90
39899;DHT22;25571;47.876;10.642;2023-05-19T12:20:26;14.90;99.90
39899;DHT22;25571;47.876;10.642;2023-05-19T12:22:54;14.90;99.90
39899;DHT22;25571;47.876;10.642;2023-05-19T12:25:20;14.80;99.90
39899;DHT22;25571;47.876;10.642;2023-05-19T12:27:46;14.90;99.90
39899;DHT22;25571;47.876;10.642;2023-05-19T12:30:15;14.80;99.90
39899;DHT22;25571;47.876;10.642;2023-05-19T12:32:41;14.90;99.90
39899;DHT22;25571;47.876;10.642;2023-05-19T12:35:08;14.90;99.90
39899;DHT22;25571;47.876;10.642;2023-05-19T12:37:35;14.90;99.90
39899;DHT22;25571;47.876;10.642;2023-05-19T12:40:02;14.80;99.90
39899;DHT22;25571;47.876;10.642;2023-05-19T12:42:30;14.80;99.90
39899;DHT22;25571;47.876;10.642;2023-05-19T12:44:57;14.90;99.90
39899;DHT22;25571;47.876;10.642;2023-05-19T12:47:29;14.90;99.90
39899;DHT22;25571;47.876;10.642;2023-05-19T12:50:07;14.80;99.90
39899;DHT22;25571;47.876;10.642;2023-05-19T12:55:05;14.80;99.90
39899;DHT22;25571;47.876;10.642;2023-05-19T12:57:39;14.70;99.90
39899;DHT22;25571;47.876;10.642;2023-05-19T13:00:07;14.70;99.90
39899;DHT22;25571;47.876;10.642;2023-05-19T13:02:45;14.70;99.90
39899;DHT22;25571;47.876;10.642;2023-05-19T13:05:19;14.60;99.90
39899;DHT22;25571;47.876;10.642;2023-05-19T13:07:54;14.90;99.90
39899;DHT22;25571;47.876;10.642;2023-05-19T13:10:20;14.90;99.90
39899;DHT22;25571;47.876;10.642;2023-05-19T13:12:46;14.90;99.90
39899;DHT22;25571;47.876;10.642;2023-05-19T13:15:12;15.00;99.90
39899;DHT22;25571;47.876;10.642;2023-05-19T13:17:37;14.90;99.90
39899;DHT22;25571;47.876;10.642;2023-05-19T13:20:04;14.90;99.90
39899;DHT22;25571;47.876;10.642;2023-05-19T13:22:30;14.80;99.90
39899;DHT22;25571;47.876;10.642;2023-05-19T13:24:56;14.50;99.90
39899;DHT22;25571;47.876;10.642;2023-05-19T13:27:24;14.50;99.90
39899;DHT22;25571;47.876;10.642;2023-05-19T13:29:49;14.50;99.90
39899;DHT22;25571;47.876;10.642;2023-05-19T13:32:15;14.50;99.90
39899;DHT22;25571;47.876;10.642;2023-05-19T13:34:41;14.50;99.90
39899;DHT22;25571;47.876;10.642;2023-05-19T13:37:06;14.60;99.90
39899;DHT22;25571;47.876;10.642;2023-05-19T13:39:34;14.30;99.90
39899;DHT22;25571;47.876;10.642;2023-05-19T13:41:59;14.40;99.90
39899;DHT22;25571;47.876;10.642;2023-05-19T13:44:25;14.30;99.90
39899;DHT22;25571;47.876;10.642;2023-05-19T13:46:50;14.20;99.90
39899;DHT22;25571;47.876;10.642;2023-05-19T13:49:16;14.30;99.90
39899;DHT22;25571;47.876;10.642;2023-05-19T13:51:42;14.20;99.90
39899;DHT22;25571;47.876;10.642;2023-05-19T13:54:08;13.90;99.90
39899;DHT22;25571;47.876;10.642;2023-05-19T13:56:34;14.10;99.90
39899;DHT22;25571;47.876;10.642;2023-05-19T13:59:00;14.00;99.90
39899;DHT22;25571;47.876;10.642;2023-05-19T14:01:26;14.00;99.90
39899;DHT22;25571;47.876;10.642;2023-05-19T14:03:51;13.90;99.90
39899;DHT22;25571;47.876;10.642;2023-05-19T14:06:17;14.00;99.90
39899;DHT22;25571;47.876;10.642;2023-05-19T14:08:43;13.90;99.90
39899;DHT22;25571;47.876;10.642;2023-05-19T14:11:08;13.90;99.90
39899;DHT22;25571;47.876;10.642;2023-05-19T14:13:34;14.00;99.90
39899;DHT22;25571;47.876;10.642;2023-05-19T14:16:00;13.90;99.90
39899;DHT22;25571;47.876;10.642;2023-05-19T14:18:26;13.90;99.90
39899;DHT22;25571;47.876;10.642;2023-05-19T14:20:51;14.00;99.90
39899;DHT22;25571;47.876;10.642;2023-05-19T14:23:17;14.10;99.90
39899;DHT22;25571;47.876;10.642;2023-05-19T14:25:44;14.10;99.90
39899;DHT22;25571;47.876;10.642;2023-05-19T14:28:10;14.10;99.90
39899;DHT22;25571;47.876;10.642;2023-05-19T14:30:35;14.20;99.90
39899;DHT22;25571;47.876;10.642;2023-05-19T14:33:01;14.20;99.90
39899;DHT22;25571;47.876;10.642;2023-05-19T14:35:26;14.20;99.90
39899;DHT22;25571;47.876;10.642;2023-05-19T14:37:52;14.20;99.90
39899;DHT22;25571;47.876;10.642;2023-05-19T14:40:18;14.20;99.90
39899;DHT22;25571;47.876;10.642;2023-05-19T14:42:43;14.20;99.90
39899;DHT22;25571;47.876;10.642;2023-05-19T14:45:09;14.10;99.90
39899;DHT22;25571;47.876;10.642;2023-05-19T14:47:35;14.10;99.90
39899;DHT22;25571;47.876;10.642;2023-05-19T14:50:00;14.00;99.90
39899;DHT22;25571;47.876;10.642;2023-05-19T14:52:26;14.20;99.90
39899;DHT22;25571;47.876;10.642;2023-05-19T14:54:51;14.20;99.90
39899;DHT22;25571;47.876;10.642;2023-05-19T14:57:17;14.30;99.90
39899;DHT22;25571;47.876;10.642;2023-05-19T14:59:43;14.30;99.90
39899;DHT22;25571;47.876;10.642;2023-05-19T15:02:08;14.10;99.90
39899;DHT22;25571;47.876;10.642;2023-05-19T15:04:35;14.10;99.90
39899;DHT22;25571;47.876;10.642;2023-05-19T15:07:01;14.10;99.90
39899;DHT22;25571;47.876;10.642;2023-05-19T15:09:26;14.00;99.90
39899;DHT22;25571;47.876;10.642;2023-05-19T15:11:52;14.10;99.90
39899;DHT22;25571;47.876;10.642;2023-05-19T15:14:17;14.10;99.90
39899;DHT22;25571;47.876;10.642;2023-05-19T15:16:43;14.00;99.90
39899;DHT22;25571;47.876;10.642;2023-05-19T15:19:09;14.00;99.90
39899;DHT22;25571;47.876;10.642;2023-05-19T15:21:35;14.00;99.90
39899;DHT22;25571;47.876;10.642;2023-05-19T15:24:00;14.00;99.90
39899;DHT22;25571;47.876;10.642;2023-05-19T15:26:26;14.10;99.90
39899;DHT22;25571;47.876;10.642;2023-05-19T15:28:52;14.00;99.90
39899;DHT22;25571;47.876;10.642;2023-05-19T15:31:17;14.00;99.90
39899;DHT22;25571;47.876;10.642;2023-05-19T15:33:43;13.90;99.90
39899;DHT22;25571;47.876;10.642;2023-05-19T15:36:08;13.90;99.90
39899;DHT22;25571;47.876;10.642;2023-05-19T15:38:40;13.80;99.90
39899;DHT22;25571;47.876;10.642;2023-05-19T15:41:06;13.80;99.90
39899;DHT22;25571;47.876;10.642;2023-05-19T15:43:32;13.70;99.90
39899;DHT22;25571;47.876;10.642;2023-05-19T15:45:58;13.80;99.90